sensor_id;sensor_type;location;lat;lon;timestamp;pressure;altitude;pressure_sealevel;temperature;humidity
48424;BME280;34232;42.502;26.014;2023-07-29T00:02:01;99772.25;;;21.05;62.18
48424;BME280;34232;42.502;26.014;2023-07-29T00:04:28;99773.06;;;21.06;61.71
48424;BME280;34232;42.502;26.014;2023-07-29T00:06:54;99771.41;;;21.05;61.77
48424;BME280;34232;42.502;26.014;2023-07-29T00:09:40;99768.75;;;21.05;62.11
48424;BME280;34232;42.502;26.014;2023-07-29T00:12:07;99770.19;;;21.07;61.75
48424;BME280;34232;42.502;26.014;2023-07-29T00:14:54;99770.59;;;21.04;61.09
48424;BME280;34232;42.502;26.014;2023-07-29T00:17:41;99768.13;;;21.03;61.23
48424;BME280;34232;42.502;26.014;2023-07-29T00:20:08;99772.22;;;20.99;61.15
48424;BME280;34232;42.502;26.014;2023-07-29T00:22:35;99767.25;;;20.95;61.58
48424;BME280;34232;42.502;26.014;2023-07-29T00:25:00;99767.69;;;20.92;61.50
48424;BME280;34232;42.502;26.014;2023-07-29T00:27:25;99767.06;;;20.90;61.63
48424;BME280;34232;42.502;26.014;2023-07-29T00:29:51;99776.31;;;20.88;61.59
48424;BME280;34232;42.502;26.014;2023-07-29T00:32:17;99773.81;;;20.86;61.88
48424;BME280;34232;42.502;26.014;2023-07-29T00:34:44;99767.22;;;20.82;61.95
48424;BME280;34232;42.502;26.014;2023-07-29T00:37:11;99764.31;;;20.77;62.16
48424;BME280;34232;42.502;26.014;2023-07-29T00:39:39;99762.88;;;20.75;62.34
48424;BME280;34232;42.502;26.014;2023-07-29T00:42:06;99765.94;;;20.72;62.38
48424;BME280;34232;42.502;26.014;2023-07-29T00:44:33;99756.84;;;20.66;62.76
48424;BME280;34232;42.502;26.014;2023-07-29T00:47:00;99757.25;;;20.63;63.09
48424;BME280;34232;42.502;26.014;2023-07-29T00:49:27;99751.47;;;20.59;63.13
48424;BME280;34232;42.502;26.014;2023-07-29T00:51:53;99747.75;;;20.54;63.28
48424;BME280;34232;42.502;26.014;2023-07-29T00:54:18;99742.78;;;20.51;63.69
48424;BME280;34232;42.502;26.014;2023-07-29T00:56:43;99737.00;;;20.47;63.79
48424;BME280;34232;42.502;26.014;2023-07-29T00:59:10;99742.53;;;20.46;63.92
48424;BME280;34232;42.502;26.014;2023-07-29T01:01:37;99743.97;;;20.42;64.34
48424;BME280;34232;42.502;26.014;2023-07-29T01:04:04;99751.38;;;20.40;64.87
48424;BME280;34232;42.502;26.014;2023-07-29T01:09:40;99756.72;;;20.40;65.68
48424;BME280;34232;42.502;26.014;2023-07-29T01:17:07;99743.59;;;20.45;65.80
48424;BME280;34232;42.502;26.014;2023-07-29T01:19:43;99741.53;;;20.47;65.37
48424;BME280;34232;42.502;26.014;2023-07-29T01:22:14;99734.94;;;20.43;65.43
48424;BME280;34232;42.502;26.014;2023-07-29T01:25:03;99734.50;;;20.39;65.46
48424;BME280;34232;42.502;26.014;2023-07-29T01:28:07;99741.22;;;20.35;65.60
48424;BME280;34232;42.502;26.014;2023-07-29T01:30:37;99739.78;;;20.33;65.80
48424;BME280;34232;42.502;26.014;2023-07-29T01:33:10;99743.47;;;20.32;65.95
48424;BME280;34232;42.502;26.014;2023-07-29T01:36:03;99748.81;;;20.32;66.38
48424;BME280;34232;42.502;26.014;2023-07-29T01:38:33;99739.13;;;20.31;66.71
48424;BME280;34232;42.502;26.014;2023-07-29T01:41:03;99740.56;;;20.26;66.99
48424;BME280;34232;42.502;26.014;2023-07-29T01:43:29;99738.53;;;20.29;67.29
48424;BME280;34232;42.502;26.014;2023-07-29T01:46:17;99734.81;;;20.30;67.17
48424;BME280;34232;42.502;26.014;2023-07-29T01:48:42;99740.56;;;20.26;67.60
48424;BME280;34232;42.502;26.014;2023-07-29T01:51:08;99744.66;;;20.22;67.58
48424;BME280;34232;42.502;26.014;2023-07-29T01:53:34;99740.34;;;20.21;67.46
48424;BME280;34232;42.502;26.014;2023-07-29T01:56:01;99748.34;;;20.21;66.65
48424;BME280;34232;42.502;26.014;2023-07-29T01:59:05;99751.03;;;20.21;65.46
48424;BME280;34232;42.502;26.014;2023-07-29T02:01:30;99755.34;;;20.22;65.27
48424;BME280;34232;42.502;26.014;2023-07-29T02:03:56;99757.78;;;20.17;65.81
48424;BME280;34232;42.502;26.014;2023-07-29T02:06:21;99760.22;;;20.12;66.00
48424;BME280;34232;42.502;26.014;2023-07-29T02:08:47;99763.03;;;20.04;66.65
48424;BME280;34232;42.502;26.014;2023-07-29T02:11:33;99764.81;;;19.97;67.21
48424;BME280;34232;42.502;26.014;2023-07-29T02:14:18;99759.63;;;19.89;67.72
48424;BME280;34232;42.502;26.014;2023-07-29T02:16:46;99757.72;;;19.83;68.23
48424;BME280;34232;42.502;26.014;2023-07-29T02:19:12;99763.03;;;19.76;68.82
48424;BME280;34232;42.502;26.014;2023-07-29T02:21:37;99759.09;;;19.72;68.97
48424;BME280;34232;42.502;26.014;2023-07-29T02:24:02;99765.63;;;19.70;69.02
48424;BME280;34232;42.502;26.014;2023-07-29T02:26:28;99762.31;;;19.68;68.95
48424;BME280;34232;42.502;26.014;2023-07-29T02:28:53;99763.53;;;19.65;69.13
48424;BME280;34232;42.502;26.014;2023-07-29T02:31:22;99759.41;;;19.63;69.17
48424;BME280;34232;42.502;26.014;2023-07-29T02:33:48;99763.28;;;19.60;69.66
48424;BME280;34232;42.502;26.014;2023-07-29T02:36:13;99771.88;;;19.55;69.92
48424;BME280;34232;42.502;26.014;2023-07-29T02:38:39;99776.56;;;19.53;69.93
48424;BME280;34232;42.502;26.014;2023-07-29T02:41:05;99776.50;;;19.47;70.45
48424;BME280;34232;42.502;26.014;2023-07-29T02:43:34;99789.22;;;19.45;70.76
48424;BME280;34232;42.502;26.014;2023-07-29T02:46:00;99781.75;;;19.40;71.18
48424;BME280;34232;42.502;26.014;2023-07-29T02:48:26;99785.44;;;19.39;71.09
48424;BME280;34232;42.502;26.014;2023-07-29T02:51:32;99785.81;;;19.36;71.40
48424;BME280;34232;42.502;26.014;2023-07-29T02:53:58;99784.94;;;19.29;71.67
48424;BME280;34232;42.502;26.014;2023-07-29T02:56:44;99786.13;;;19.27;71.91
48424;BME280;34232;42.502;26.014;2023-07-29T02:59:10;99787.97;;;19.26;71.64
48424;BME280;34232;42.502;26.014;2023-07-29T03:02:15;99789.00;;;19.25;71.58
48424;BME280;34232;42.502;26.014;2023-07-29T03:05:01;99788.63;;;19.28;71.44
48424;BME280;34232;42.502;26.014;2023-07-29T03:07:47;99789.81;;;19.26;71.23
48424;BME280;34232;42.502;26.014;2023-07-29T03:10:12;99789.63;;;19.27;71.33
48424;BME280;34232;42.502;26.014;2023-07-29T03:12:39;99791.94;;;19.30;71.26
48424;BME280;34232;42.502;26.014;2023-07-29T03:15:24;99793.59;;;19.31;70.76
48424;BME280;34232;42.502;26.014;2023-07-29T03:18:10;99792.31;;;19.27;70.51
48424;BME280;34232;42.502;26.014;2023-07-29T03:21:15;99787.78;;;19.28;70.88
48424;BME280;34232;42.502;26.014;2023-07-29T03:23:42;99785.31;;;19.26;70.96
48424;BME280;34232;42.502;26.014;2023-07-29T03:26:30;99785.75;;;19.30;71.06
48424;BME280;34232;42.502;26.014;2023-07-29T03:29:15;99789.13;;;19.38;70.56
48424;BME280;34232;42.502;26.014;2023-07-29T03:31:41;99790.41;;;19.42;70.59
48424;BME280;34232;42.502;26.014;2023-07-29T03:34:06;99793.97;;;19.49;70.50
48424;BME280;34232;42.502;26.014;2023-07-29T03:36:31;99790.56;;;19.55;70.57
48424;BME280;34232;42.502;26.014;2023-07-29T03:38:59;99795.53;;;19.59;70.29
48424;BME280;34232;42.502;26.014;2023-07-29T03:41:43;99794.31;;;19.61;70.44
48424;BME280;34232;42.502;26.014;2023-07-29T03:44:09;99795.97;;;19.62;70.59
48424;BME280;34232;42.502;26.014;2023-07-29T03:46:36;99795.38;;;19.67;70.34
48424;BME280;34232;42.502;26.014;2023-07-29T03:49:02;99800.16;;;19.71;70.29
48424;BME280;34232;42.502;26.014;2023-07-29T03:51:47;99798.97;;;19.74;69.80
48424;BME280;34232;42.502;26.014;2023-07-29T03:54:12;99797.13;;;19.74;69.06
48424;BME280;34232;42.502;26.014;2023-07-29T03:56:38;99807.03;;;19.80;67.72
48424;BME280;34232;42.502;26.014;2023-07-29T03:59:03;99806.44;;;19.85;66.78
48424;BME280;34232;42.502;26.014;2023-07-29T04:01:29;99807.72;;;19.89;65.46
48424;BME280;34232;42.502;26.014;2023-07-29T04:03:55;99810.66;;;19.94;65.03
48424;BME280;34232;42.502;26.014;2023-07-29T04:06:20;99804.50;;;20.00;63.61
48424;BME280;34232;42.502;26.014;2023-07-29T04:09:06;99807.44;;;20.05;62.96
48424;BME280;34232;42.502;26.014;2023-07-29T04:11:33;99808.28;;;20.06;62.78
48424;BME280;34232;42.502;26.014;2023-07-29T04:13:58;99803.38;;;20.09;62.60
48424;BME280;34232;42.502;26.014;2023-07-29T04:16:24;99800.94;;;20.14;63.09
48424;BME280;34232;42.502;26.014;2023-07-29T04:18:49;99803.47;;;20.22;63.20
48424;BME280;34232;42.502;26.014;2023-07-29T04:21:15;99798.59;;;20.33;63.58
48424;BME280;34232;42.502;26.014;2023-07-29T04:23:40;99804.84;;;20.40;63.12
48424;BME280;34232;42.502;26.014;2023-07-29T04:26:06;99798.31;;;20.49;61.88
48424;BME280;34232;42.502;26.014;2023-07-29T04:28:32;99797.16;;;20.58;60.90
48424;BME280;34232;42.502;26.014;2023-07-29T04:30:57;99796.78;;;20.68;59.39
48424;BME280;34232;42.502;26.014;2023-07-29T04:33:22;99801.78;;;20.77;59.42
48424;BME280;34232;42.502;26.014;2023-07-29T04:35:48;99796.50;;;20.90;59.37
48424;BME280;34232;42.502;26.014;2023-07-29T04:38:13;99803.94;;;21.02;59.07
48424;BME280;34232;42.502;26.014;2023-07-29T04:40:38;99802.31;;;21.14;58.46
48424;BME280;34232;42.502;26.014;2023-07-29T04:43:04;99807.75;;;21.27;57.12
48424;BME280;34232;42.502;26.014;2023-07-29T04:46:10;99816.00;;;21.32;54.57
48424;BME280;34232;42.502;26.014;2023-07-29T04:49:14;99806.59;;;21.49;55.29
48424;BME280;34232;42.502;26.014;2023-07-29T04:51:40;99815.41;;;21.37;53.49
48424;BME280;34232;42.502;26.014;2023-07-29T04:54:45;99823.06;;;21.59;54.69
48424;BME280;34232;42.502;26.014;2023-07-29T04:57:31;99819.81;;;21.84;54.40
48424;BME280;34232;42.502;26.014;2023-07-29T04:59:57;99836.38;;;22.07;51.95
48424;BME280;34232;42.502;26.014;2023-07-29T05:02:26;99830.59;;;22.37;51.48
48424;BME280;34232;42.502;26.014;2023-07-29T05:05:28;99834.25;;;22.68;49.50
48424;BME280;34232;42.502;26.014;2023-07-29T05:08:33;99840.75;;;23.06;48.09
48424;BME280;34232;42.502;26.014;2023-07-29T05:10:59;99850.16;;;23.34;48.81
48424;BME280;34232;42.502;26.014;2023-07-29T05:13:25;99846.31;;;23.55;48.99
48424;BME280;34232;42.502;26.014;2023-07-29T05:15:50;99849.94;;;23.74;47.24
48424;BME280;34232;42.502;26.014;2023-07-29T05:18:16;99850.38;;;23.71;47.51
48424;BME280;34232;42.502;26.014;2023-07-29T05:20:41;99855.28;;;23.81;46.92
48424;BME280;34232;42.502;26.014;2023-07-29T05:23:07;99864.53;;;24.16;46.18
48424;BME280;34232;42.502;26.014;2023-07-29T05:26:12;99859.66;;;24.56;45.93
48424;BME280;34232;42.502;26.014;2023-07-29T05:28:59;99860.34;;;24.88;45.30
48424;BME280;34232;42.502;26.014;2023-07-29T05:31:24;99861.00;;;25.08;43.71
48424;BME280;34232;42.502;26.014;2023-07-29T05:33:49;99872.03;;;25.37;42.80
48424;BME280;34232;42.502;26.014;2023-07-29T05:36:14;99870.56;;;25.04;43.02
48424;BME280;34232;42.502;26.014;2023-07-29T05:38:41;99867.09;;;25.34;42.84
48424;BME280;34232;42.502;26.014;2023-07-29T05:41:27;99865.13;;;25.11;42.89
48424;BME280;34232;42.502;26.014;2023-07-29T05:44:15;99869.03;;;25.45;41.80
48424;BME280;34232;42.502;26.014;2023-07-29T05:47:19;99861.38;;;25.60;40.94
48424;BME280;34232;42.502;26.014;2023-07-29T05:50:25;99865.03;;;25.66;40.18
48424;BME280;34232;42.502;26.014;2023-07-29T05:53:30;99856.41;;;25.75;40.44
48424;BME280;34232;42.502;26.014;2023-07-29T05:56:35;99857.88;;;26.01;40.12
48424;BME280;34232;42.502;26.014;2023-07-29T05:59:20;99859.41;;;26.09;39.19
48424;BME280;34232;42.502;26.014;2023-07-29T06:01:46;99860.19;;;26.39;39.53
48424;BME280;34232;42.502;26.014;2023-07-29T06:04:51;99855.16;;;25.90;39.21
48424;BME280;34232;42.502;26.014;2023-07-29T06:07:56;99855.97;;;25.60;40.32
48424;BME280;34232;42.502;26.014;2023-07-29T06:10:21;99853.13;;;25.55;40.41
48424;BME280;34232;42.502;26.014;2023-07-29T06:12:47;99845.38;;;25.47;40.68
48424;BME280;34232;42.502;26.014;2023-07-29T06:15:12;99849.50;;;25.79;39.81
48424;BME280;34232;42.502;26.014;2023-07-29T06:17:38;99857.97;;;25.95;40.75
48424;BME280;34232;42.502;26.014;2023-07-29T06:20:04;99851.69;;;26.24;39.60
48424;BME280;34232;42.502;26.014;2023-07-29T06:22:30;99855.72;;;26.68;40.00
48424;BME280;34232;42.502;26.014;2023-07-29T06:24:56;99859.22;;;26.92;38.82
48424;BME280;34232;42.502;26.014;2023-07-29T06:27:21;99853.09;;;26.85;39.17
48424;BME280;34232;42.502;26.014;2023-07-29T06:29:46;99851.25;;;26.74;39.40
48424;BME280;34232;42.502;26.014;2023-07-29T06:32:12;99848.75;;;26.96;38.65
48424;BME280;34232;42.502;26.014;2023-07-29T06:35:17;99853.34;;;26.72;38.83
48424;BME280;34232;42.502;26.014;2023-07-29T06:38:03;99846.66;;;26.98;38.26
48424;BME280;34232;42.502;26.014;2023-07-29T06:40:28;99847.59;;;27.32;37.46
48424;BME280;34232;42.502;26.014;2023-07-29T06:42:53;99847.38;;;27.62;37.64
48424;BME280;34232;42.502;26.014;2023-07-29T06:45:18;99849.84;;;27.92;38.14
48424;BME280;34232;42.502;26.014;2023-07-29T06:47:44;99845.91;;;28.16;36.75
48424;BME280;34232;42.502;26.014;2023-07-29T06:50:10;99846.88;;;28.43;37.72
48424;BME280;34232;42.502;26.014;2023-07-29T06:52:35;99858.47;;;28.55;36.75
48424;BME280;34232;42.502;26.014;2023-07-29T06:55:01;99852.50;;;28.37;36.79
48424;BME280;34232;42.502;26.014;2023-07-29T06:57:27;99850.13;;;28.40;36.14
48424;BME280;34232;42.502;26.014;2023-07-29T06:59:52;99848.13;;;28.52;35.69
48424;BME280;34232;42.502;26.014;2023-07-29T07:02:18;99844.97;;;28.61;36.18
48424;BME280;34232;42.502;26.014;2023-07-29T07:04:43;99841.16;;;28.57;36.31
48424;BME280;34232;42.502;26.014;2023-07-29T07:07:09;99831.50;;;28.66;35.76
48424;BME280;34232;42.502;26.014;2023-07-29T07:09:34;99827.97;;;28.65;35.34
48424;BME280;34232;42.502;26.014;2023-07-29T07:11:59;99829.22;;;28.58;36.88
48424;BME280;34232;42.502;26.014;2023-07-29T07:14:25;99828.94;;;28.76;36.01
48424;BME280;34232;42.502;26.014;2023-07-29T07:16:50;99829.31;;;29.01;35.02
48424;BME280;34232;42.502;26.014;2023-07-29T07:19:16;99824.13;;;29.21;34.80
48424;BME280;34232;42.502;26.014;2023-07-29T07:21:41;99820.94;;;29.30;34.15
48424;BME280;34232;42.502;26.014;2023-07-29T07:24:06;99813.31;;;29.48;35.29
48424;BME280;34232;42.502;26.014;2023-07-29T07:26:32;99820.28;;;29.66;35.41
48424;BME280;34232;42.502;26.014;2023-07-29T07:28:58;99807.63;;;29.50;33.64
48424;BME280;34232;42.502;26.014;2023-07-29T07:31:23;99809.19;;;29.73;34.58
48424;BME280;34232;42.502;26.014;2023-07-29T07:33:48;99806.34;;;29.89;34.46
48424;BME280;34232;42.502;26.014;2023-07-29T07:36:14;99804.34;;;30.07;33.74
48424;BME280;34232;42.502;26.014;2023-07-29T07:38:41;99795.78;;;30.25;33.67
48424;BME280;34232;42.502;26.014;2023-07-29T07:41:27;99801.31;;;30.35;33.44
48424;BME280;34232;42.502;26.014;2023-07-29T07:43:52;99796.00;;;30.55;32.41
48424;BME280;34232;42.502;26.014;2023-07-29T07:46:17;99791.44;;;30.66;32.19
48424;BME280;34232;42.502;26.014;2023-07-29T07:48:43;99798.34;;;30.84;31.14
48424;BME280;34232;42.502;26.014;2023-07-29T07:51:11;99799.91;;;30.75;30.71
48424;BME280;34232;42.502;26.014;2023-07-29T07:53:38;99786.84;;;30.67;30.66
48424;BME280;34232;42.502;26.014;2023-07-29T07:56:04;99787.09;;;30.70;30.49
48424;BME280;34232;42.502;26.014;2023-07-29T07:58:29;99793.38;;;30.76;30.81
48424;BME280;34232;42.502;26.014;2023-07-29T08:01:01;99782.00;;;30.84;31.54
48424;BME280;34232;42.502;26.014;2023-07-29T08:03:27;99773.06;;;30.93;31.54
48424;BME280;34232;42.502;26.014;2023-07-29T08:05:52;99775.00;;;30.98;31.00
48424;BME280;34232;42.502;26.014;2023-07-29T08:08:18;99774.53;;;31.16;30.49
48424;BME280;34232;42.502;26.014;2023-07-29T08:10:43;99777.84;;;31.39;30.53
48424;BME280;34232;42.502;26.014;2023-07-29T08:13:08;99776.78;;;31.60;30.39
48424;BME280;34232;42.502;26.014;2023-07-29T08:15:34;99783.59;;;31.68;29.48
48424;BME280;34232;42.502;26.014;2023-07-29T08:17:59;99774.56;;;31.37;29.17
48424;BME280;34232;42.502;26.014;2023-07-29T08:20:24;99775.66;;;31.51;29.47
48424;BME280;34232;42.502;26.014;2023-07-29T08:22:50;99768.09;;;31.78;29.44
48424;BME280;34232;42.502;26.014;2023-07-29T08:25:15;99765.91;;;31.95;28.62
48424;BME280;34232;42.502;26.014;2023-07-29T08:27:40;99771.38;;;31.65;27.79
48424;BME280;34232;42.502;26.014;2023-07-29T08:30:06;99760.75;;;31.94;27.73
48424;BME280;34232;42.502;26.014;2023-07-29T08:32:32;99766.72;;;32.21;27.86
48424;BME280;34232;42.502;26.014;2023-07-29T08:34:57;99767.47;;;32.47;27.45
48424;BME280;34232;42.502;26.014;2023-07-29T08:37:22;99761.72;;;32.54;26.74
48424;BME280;34232;42.502;26.014;2023-07-29T08:39:48;99750.47;;;32.71;26.72
48424;BME280;34232;42.502;26.014;2023-07-29T08:42:13;99753.69;;;32.88;26.13
48424;BME280;34232;42.502;26.014;2023-07-29T08:44:42;99747.06;;;33.04;25.61
48424;BME280;34232;42.502;26.014;2023-07-29T08:47:08;99750.53;;;32.55;25.69
48424;BME280;34232;42.502;26.014;2023-07-29T08:49:33;99749.94;;;32.63;26.58
48424;BME280;34232;42.502;26.014;2023-07-29T08:51:59;99744.50;;;32.74;25.68
48424;BME280;34232;42.502;26.014;2023-07-29T08:54:26;99747.16;;;32.84;25.57
48424;BME280;34232;42.502;26.014;2023-07-29T08:56:52;99740.00;;;32.98;24.32
48424;BME280;34232;42.502;26.014;2023-07-29T08:59:20;99739.97;;;33.08;24.17
48424;BME280;34232;42.502;26.014;2023-07-29T09:02:26;99739.00;;;33.33;24.29
48424;BME280;34232;42.502;26.014;2023-07-29T09:04:51;99740.63;;;33.34;25.68
48424;BME280;34232;42.502;26.014;2023-07-29T09:07:16;99735.38;;;33.43;25.72
48424;BME280;34232;42.502;26.014;2023-07-29T09:10:22;99732.84;;;33.51;26.05
48424;BME280;34232;42.502;26.014;2023-07-29T09:13:27;99722.63;;;33.33;23.96
48424;BME280;34232;42.502;26.014;2023-07-29T09:15:57;99725.31;;;33.38;24.78
48424;BME280;34232;42.502;26.014;2023-07-29T09:18:22;99723.50;;;33.18;23.54
48424;BME280;34232;42.502;26.014;2023-07-29T09:20:50;99725.16;;;33.14;23.25
48424;BME280;34232;42.502;26.014;2023-07-29T09:23:42;99709.84;;;33.23;23.17
48424;BME280;34232;42.502;26.014;2023-07-29T09:26:50;99719.69;;;33.19;22.84
48424;BME280;34232;42.502;26.014;2023-07-29T09:29:35;99710.94;;;33.27;23.41
48424;BME280;34232;42.502;26.014;2023-07-29T09:32:21;99714.69;;;33.36;23.74
48424;BME280;34232;42.502;26.014;2023-07-29T09:34:47;99705.22;;;33.58;23.09
48424;BME280;34232;42.502;26.014;2023-07-29T09:37:32;99699.59;;;33.78;23.01
48424;BME280;34232;42.502;26.014;2023-07-29T09:39:58;99703.22;;;33.97;22.89
48424;BME280;34232;42.502;26.014;2023-07-29T09:42:23;99689.06;;;34.19;22.90
48424;BME280;34232;42.502;26.014;2023-07-29T09:44:49;99699.47;;;34.17;22.14
48424;BME280;34232;42.502;26.014;2023-07-29T09:47:21;99690.13;;;34.23;23.51
48424;BME280;34232;42.502;26.014;2023-07-29T09:49:50;99691.44;;;34.26;22.26
48424;BME280;34232;42.502;26.014;2023-07-29T09:52:16;99688.06;;;34.39;22.41
48424;BME280;34232;42.502;26.014;2023-07-29T09:54:43;99685.19;;;34.49;22.19
48424;BME280;34232;42.502;26.014;2023-07-29T09:57:28;99690.59;;;34.54;22.05
48424;BME280;34232;42.502;26.014;2023-07-29T09:59:55;99685.47;;;34.24;22.15
48424;BME280;34232;42.502;26.014;2023-07-29T10:02:21;99671.84;;;34.19;23.05
48424;BME280;34232;42.502;26.014;2023-07-29T10:04:46;99672.19;;;33.88;23.57
48424;BME280;34232;42.502;26.014;2023-07-29T10:07:12;99671.16;;;34.08;22.75
48424;BME280;34232;42.502;26.014;2023-07-29T10:09:37;99662.06;;;34.13;23.29
48424;BME280;34232;42.502;26.014;2023-07-29T10:12:04;99657.59;;;34.22;22.77
48424;BME280;34232;42.502;26.014;2023-07-29T10:14:31;99664.88;;;34.08;22.63
48424;BME280;34232;42.502;26.014;2023-07-29T10:16:56;99659.59;;;34.40;23.21
48424;BME280;34232;42.502;26.014;2023-07-29T10:19:22;99661.22;;;34.60;22.42
48424;BME280;34232;42.502;26.014;2023-07-29T10:21:48;99666.09;;;34.44;22.30
48424;BME280;34232;42.502;26.014;2023-07-29T10:24:21;99657.19;;;34.57;22.44
48424;BME280;34232;42.502;26.014;2023-07-29T10:27:07;99659.81;;;34.86;22.17
48424;BME280;34232;42.502;26.014;2023-07-29T10:30:13;99658.16;;;34.66;21.96
48424;BME280;34232;42.502;26.014;2023-07-29T10:32:59;99658.03;;;34.95;23.14
48424;BME280;34232;42.502;26.014;2023-07-29T10:35:26;99646.97;;;35.19;22.78
48424;BME280;34232;42.502;26.014;2023-07-29T10:37:52;99647.88;;;35.33;22.84
48424;BME280;34232;42.502;26.014;2023-07-29T10:40:18;99639.38;;;35.49;22.74
48424;BME280;34232;42.502;26.014;2023-07-29T10:43:00;99643.47;;;35.65;22.23
48424;BME280;34232;42.502;26.014;2023-07-29T10:45:38;99639.78;;;35.56;21.52
48424;BME280;34232;42.502;26.014;2023-07-29T10:48:05;99634.28;;;35.23;21.79
48424;BME280;34232;42.502;26.014;2023-07-29T10:53:52;99627.34;;;34.80;22.34
48424;BME280;34232;42.502;26.014;2023-07-29T10:56:24;99623.16;;;34.63;22.12
48424;BME280;34232;42.502;26.014;2023-07-29T10:58:49;99624.09;;;34.78;22.22
48424;BME280;34232;42.502;26.014;2023-07-29T11:01:21;99621.22;;;34.45;22.77
48424;BME280;34232;42.502;26.014;2023-07-29T11:07:01;99613.69;;;34.37;23.17
48424;BME280;34232;42.502;26.014;2023-07-29T11:14:49;99604.88;;;34.83;23.36
48424;BME280;34232;42.502;26.014;2023-07-29T11:17:15;99600.44;;;34.87;22.94
48424;BME280;34232;42.502;26.014;2023-07-29T11:19:41;99591.97;;;35.02;23.30
48424;BME280;34232;42.502;26.014;2023-07-29T11:22:06;99589.78;;;35.18;22.96
48424;BME280;34232;42.502;26.014;2023-07-29T11:24:52;99597.19;;;35.50;23.11
48424;BME280;34232;42.502;26.014;2023-07-29T11:27:57;99585.22;;;35.46;22.95
48424;BME280;34232;42.502;26.014;2023-07-29T11:30:23;99587.25;;;35.54;22.83
48424;BME280;34232;42.502;26.014;2023-07-29T11:32:51;99576.31;;;35.54;22.30
48424;BME280;34232;42.502;26.014;2023-07-29T11:35:20;99579.94;;;35.35;23.18
48424;BME280;34232;42.502;26.014;2023-07-29T11:38:06;99578.69;;;35.41;22.09
48424;BME280;34232;42.502;26.014;2023-07-29T11:41:11;99571.31;;;35.56;23.21
48424;BME280;34232;42.502;26.014;2023-07-29T11:43:57;99579.44;;;35.61;22.55
48424;BME280;34232;42.502;26.014;2023-07-29T11:46:22;99569.22;;;35.66;21.90
48424;BME280;34232;42.502;26.014;2023-07-29T11:48:48;99566.78;;;35.79;22.79
48424;BME280;34232;42.502;26.014;2023-07-29T11:51:13;99561.91;;;35.89;22.52
48424;BME280;34232;42.502;26.014;2023-07-29T11:53:39;99566.41;;;35.85;22.50
48424;BME280;34232;42.502;26.014;2023-07-29T11:56:04;99563.44;;;35.95;22.38
48424;BME280;34232;42.502;26.014;2023-07-29T11:58:30;99554.38;;;36.08;21.99
48424;BME280;34232;42.502;26.014;2023-07-29T12:01:35;99553.78;;;36.11;21.98
48424;BME280;34232;42.502;26.014;2023-07-29T12:04:20;99555.59;;;36.16;21.83
48424;BME280;34232;42.502;26.014;2023-07-29T12:06:46;99550.31;;;36.20;21.73
48424;BME280;34232;42.502;26.014;2023-07-29T12:09:11;99551.84;;;36.26;22.17
48424;BME280;34232;42.502;26.014;2023-07-29T12:11:41;99553.38;;;36.32;22.16
48424;BME280;34232;42.502;26.014;2023-07-29T12:14:08;99540.72;;;36.44;22.53
48424;BME280;34232;42.502;26.014;2023-07-29T12:16:53;99541.53;;;36.45;22.25
48424;BME280;34232;42.502;26.014;2023-07-29T12:19:19;99535.19;;;36.58;22.08
48424;BME280;34232;42.502;26.014;2023-07-29T12:22:07;99537.72;;;36.19;21.88
48424;BME280;34232;42.502;26.014;2023-07-29T12:24:52;99539.84;;;36.35;22.18
48424;BME280;34232;42.502;26.014;2023-07-29T12:28:04;99539.28;;;36.47;22.34
48424;BME280;34232;42.502;26.014;2023-07-29T12:30:30;99534.72;;;36.42;22.46
48424;BME280;34232;42.502;26.014;2023-07-29T12:33:38;99531.63;;;36.35;22.70
48424;BME280;34232;42.502;26.014;2023-07-29T12:36:32;99536.50;;;36.25;21.21
48424;BME280;34232;42.502;26.014;2023-07-29T12:39:26;99522.09;;;36.19;22.02
48424;BME280;34232;42.502;26.014;2023-07-29T12:42:12;99522.72;;;36.02;22.00
48424;BME280;34232;42.502;26.014;2023-07-29T12:45:21;99518.66;;;35.59;22.19
48424;BME280;34232;42.502;26.014;2023-07-29T12:48:26;99519.69;;;35.63;22.63
48424;BME280;34232;42.502;26.014;2023-07-29T12:50:51;99513.41;;;35.49;22.28
48424;BME280;34232;42.502;26.014;2023-07-29T12:53:17;99512.19;;;35.55;22.56
48424;BME280;34232;42.502;26.014;2023-07-29T12:55:46;99509.25;;;35.65;22.35
48424;BME280;34232;42.502;26.014;2023-07-29T12:58:51;99511.78;;;35.61;22.44
48424;BME280;34232;42.502;26.014;2023-07-29T13:01:16;99516.88;;;35.54;22.81
48424;BME280;34232;42.502;26.014;2023-07-29T13:03:47;99513.19;;;35.72;22.88
48424;BME280;34232;42.502;26.014;2023-07-29T13:06:22;99510.28;;;35.83;22.73
48424;BME280;34232;42.502;26.014;2023-07-29T13:09:08;99504.78;;;35.69;21.85
48424;BME280;34232;42.502;26.014;2023-07-29T13:11:53;99512.88;;;35.74;22.65
48424;BME280;34232;42.502;26.014;2023-07-29T13:14:40;99510.25;;;35.69;23.33
48424;BME280;34232;42.502;26.014;2023-07-29T13:17:29;99513.69;;;35.88;22.82
48424;BME280;34232;42.502;26.014;2023-07-29T13:19:54;99506.50;;;35.92;22.70
48424;BME280;34232;42.502;26.014;2023-07-29T13:22:20;99515.44;;;35.84;22.75
48424;BME280;34232;42.502;26.014;2023-07-29T13:24:45;99511.38;;;35.95;22.16
48424;BME280;34232;42.502;26.014;2023-07-29T13:27:11;99506.28;;;36.02;22.42
48424;BME280;34232;42.502;26.014;2023-07-29T13:30:01;99506.66;;;36.09;23.08
48424;BME280;34232;42.502;26.014;2023-07-29T13:32:48;99505.81;;;36.23;23.08
48424;BME280;34232;42.502;26.014;2023-07-29T13:35:52;99504.09;;;36.27;21.56
48424;BME280;34232;42.502;26.014;2023-07-29T13:38:18;99496.28;;;36.20;21.98
48424;BME280;34232;42.502;26.014;2023-07-29T13:41:03;99498.13;;;36.25;24.07
48424;BME280;34232;42.502;26.014;2023-07-29T13:43:30;99494.25;;;36.26;22.57